createdAt,value
2022-09-13T00:01:00.796Z,63.10
2022-09-13T00:03:27.725Z,63.00
2022-09-13T00:05:54.477Z,62.80
2022-09-13T00:08:21.409Z,63.00
2022-09-13T00:10:48.334Z,63.10
2022-09-13T00:13:15.481Z,63.10
2022-09-13T00:15:49.339Z,63.20
2022-09-13T00:18:16.299Z,62.90
2022-09-13T00:20:43.193Z,62.90
2022-09-13T00:23:10.858Z,63.00
2022-09-13T00:25:37.798Z,63.00
2022-09-13T00:28:04.834Z,62.80
2022-09-13T00:30:31.643Z,62.60
2022-09-13T00:32:58.377Z,62.70
2022-09-13T00:35:25.230Z,62.60
2022-09-13T00:37:51.979Z,62.60
2022-09-13T00:40:18.841Z,62.80
2022-09-13T00:42:45.643Z,62.90
2022-09-13T00:45:12.331Z,63.00
2022-09-13T00:47:42.050Z,63.10
2022-09-13T00:50:21.895Z,63.20
2022-09-13T00:53:01.283Z,63.20
2022-09-13T00:55:44.065Z,63.30
2022-09-13T00:58:14.054Z,63.40
2022-09-13T01:00:40.936Z,63.50
2022-09-13T01:03:09.349Z,63.60
2022-09-13T01:05:47.751Z,64.50
2022-09-13T01:08:22.488Z,63.50
2022-09-13T01:10:52.479Z,63.30
2022-09-13T01:13:23.546Z,63.30
2022-09-13T01:15:50.305Z,63.40
2022-09-13T01:18:17.350Z,63.70
2022-09-13T01:20:53.000Z,63.70
2022-09-13T01:23:28.590Z,63.80
2022-09-13T01:26:22.785Z,63.80
2022-09-13T01:29:02.768Z,63.80
2022-09-13T01:32:20.453Z,63.60
2022-09-13T01:35:02.753Z,63.10
2022-09-13T01:37:38.460Z,63.00
2022-09-13T01:40:23.568Z,63.10
2022-09-13T01:43:03.047Z,63.20
2022-09-13T01:46:02.786Z,63.30
2022-09-13T01:48:35.592Z,63.20
2022-09-13T01:51:32.572Z,63.30
2022-09-13T01:54:17.843Z,63.30
2022-09-13T01:57:03.980Z,63.20
2022-09-13T01:59:39.688Z,63.30
2022-09-13T02:02:12.343Z,63.40
2022-09-13T02:04:41.926Z,63.70
2022-09-13T02:07:20.062Z,63.80
2022-09-13T02:09:50.608Z,63.70
2022-09-13T02:12:23.234Z,63.50
2022-09-13T02:15:00.771Z,63.30
2022-09-13T02:17:29.980Z,63.30
2022-09-13T02:20:00.271Z,63.40
2022-09-13T02:22:33.098Z,63.50
2022-09-13T02:25:10.705Z,64.20
2022-09-13T02:27:37.362Z,64.50
2022-09-13T02:30:09.196Z,64.50
2022-09-13T02:32:41.931Z,64.60
2022-09-13T02:35:12.802Z,64.50
2022-09-13T02:37:40.308Z,64.60
2022-09-13T02:40:15.116Z,64.60
2022-09-13T02:42:44.216Z,64.50
2022-09-13T02:45:12.073Z,64.50
2022-09-13T02:47:59.184Z,64.40
2022-09-13T02:50:49.693Z,64.40
2022-09-13T02:53:30.450Z,64.50
2022-09-13T02:56:29.076Z,64.50
2022-09-13T02:59:00.679Z,64.60
2022-09-13T03:01:27.450Z,64.80
2022-09-13T03:03:54.359Z,64.70
2022-09-13T03:06:25.135Z,64.40
2022-09-13T03:08:52.960Z,64.50
2022-09-13T03:11:49.817Z,64.60
2022-09-13T03:14:19.317Z,64.70
2022-09-13T03:16:56.548Z,64.50
2022-09-13T03:19:53.913Z,64.70
2022-09-13T03:22:48.529Z,64.60
2022-09-13T03:25:45.469Z,64.80
2022-09-13T03:28:24.733Z,64.90
2022-09-13T03:30:55.689Z,65.00
2022-09-13T03:33:30.454Z,65.10
2022-09-13T03:36:20.370Z,65.20
2022-09-13T03:39:06.708Z,65.20
2022-09-13T03:41:36.937Z,65.20
2022-09-13T03:44:05.138Z,65.40
2022-09-13T03:46:42.416Z,65.50
2022-09-13T03:49:14.319Z,65.50
2022-09-13T03:51:41.252Z,65.30
2022-09-13T03:54:10.815Z,65.40
2022-09-13T03:56:37.664Z,65.50
2022-09-13T03:59:04.413Z,65.70
2022-09-13T04:01:31.230Z,65.80
2022-09-13T04:03:59.069Z,65.80
2022-09-13T04:06:25.756Z,65.80
2022-09-13T04:08:52.471Z,66.70
2022-09-13T04:11:21.313Z,65.70
2022-09-13T04:13:48.245Z,65.90
2022-09-13T04:16:15.379Z,65.80
2022-09-13T04:18:42.133Z,65.90
2022-09-13T04:21:08.956Z,66.00
2022-09-13T04:23:35.667Z,65.90
2022-09-13T04:26:03.693Z,65.80
2022-09-13T04:28:30.976Z,65.80
2022-09-13T04:30:57.794Z,65.90
2022-09-13T04:33:25.128Z,65.70
2022-09-13T04:35:58.510Z,65.90
2022-09-13T04:38:25.279Z,65.90
2022-09-13T04:40:55.450Z,66.10
2022-09-13T04:43:22.610Z,65.70
2022-09-13T04:45:49.548Z,65.80
2022-09-13T04:48:16.523Z,65.80
2022-09-13T04:50:43.446Z,65.90
2022-09-13T04:53:10.185Z,65.80
2022-09-13T04:55:36.923Z,66.00
2022-09-13T04:58:04.188Z,65.80
2022-09-13T05:00:31.681Z,65.80
2022-09-13T05:02:58.527Z,66.10
2022-09-13T05:05:28.912Z,66.20
2022-09-13T05:07:55.727Z,66.30
2022-09-13T05:10:22.471Z,66.40
2022-09-13T05:12:49.199Z,66.50
2022-09-13T05:15:15.909Z,66.60
2022-09-13T05:17:42.630Z,66.50
2022-09-13T05:20:09.933Z,66.70
2022-09-13T05:22:36.641Z,67.00
2022-09-13T05:25:03.797Z,66.80
2022-09-13T05:27:30.544Z,66.80
2022-09-13T05:29:57.414Z,67.60
2022-09-13T05:32:24.169Z,66.70
2022-09-13T05:34:50.933Z,66.60
2022-09-13T05:37:18.702Z,66.60
2022-09-13T05:40:09.691Z,66.50
2022-09-13T05:42:32.318Z,66.50
2022-09-13T05:44:59.079Z,66.60
2022-09-13T05:47:25.751Z,66.60
2022-09-13T05:50:09.224Z,66.50
2022-09-13T05:52:36.451Z,66.70
2022-09-13T05:55:04.703Z,66.60
2022-09-13T05:57:31.410Z,66.70
2022-09-13T05:59:58.091Z,65.40
2022-09-13T06:02:24.998Z,65.60
2022-09-13T06:04:51.975Z,65.80
2022-09-13T06:07:18.790Z,65.80
2022-09-13T06:09:45.501Z,66.00
2022-09-13T06:12:12.189Z,66.00
2022-09-13T06:14:38.882Z,66.50
2022-09-13T06:17:05.613Z,66.60
2022-09-13T06:19:32.269Z,66.60
2022-09-13T06:21:58.962Z,66.60
2022-09-13T06:24:25.661Z,66.60
2022-09-13T06:26:52.482Z,66.80
2022-09-13T06:29:19.200Z,66.90
2022-09-13T06:31:45.943Z,67.00
2022-09-13T06:34:16.257Z,67.30
2022-09-13T06:36:43.287Z,67.40
2022-09-13T06:39:10.041Z,67.30
2022-09-13T06:41:37.540Z,67.30
2022-09-13T06:44:04.499Z,67.50
2022-09-13T06:46:32.838Z,67.40
2022-09-13T06:49:05.980Z,67.40
2022-09-13T06:51:33.171Z,67.20
2022-09-13T06:54:00.139Z,67.30
2022-09-13T06:56:28.300Z,67.40
2022-09-13T06:58:59.407Z,67.50
2022-09-13T07:01:28.102Z,67.50
2022-09-13T07:04:02.653Z,67.50
2022-09-13T07:06:31.101Z,67.50
2022-09-13T07:08:58.589Z,67.40
2022-09-13T07:11:26.770Z,67.50
2022-09-13T07:13:57.511Z,67.80
2022-09-13T07:16:25.707Z,67.80
2022-09-13T07:18:53.620Z,67.80
2022-09-13T07:21:20.792Z,68.00
2022-09-13T07:23:47.556Z,67.90
2022-09-13T07:26:14.300Z,68.10
2022-09-13T07:28:45.248Z,68.10
2022-09-13T07:31:17.269Z,68.10
2022-09-13T07:33:44.291Z,68.40
2022-09-13T07:36:12.076Z,68.50
2022-09-13T07:38:40.437Z,68.40
2022-09-13T07:41:09.074Z,68.40
2022-09-13T07:43:36.169Z,68.50
2022-09-13T07:46:07.592Z,68.50
2022-09-13T07:48:35.887Z,68.50
2022-09-13T07:51:07.295Z,68.50
2022-09-13T07:53:34.801Z,68.60
2022-09-13T07:56:06.508Z,68.40
2022-09-13T07:58:33.830Z,68.30
2022-09-13T08:01:12.530Z,68.50
2022-09-13T08:03:39.325Z,68.60
2022-09-13T08:06:06.452Z,68.30
2022-09-13T08:08:33.420Z,68.50
2022-09-13T08:11:01.110Z,68.60
2022-09-13T08:13:28.876Z,68.90
2022-09-13T08:15:56.126Z,68.70
2022-09-13T08:18:23.020Z,68.90
2022-09-13T08:20:49.686Z,69.10
2022-09-13T08:23:16.837Z,68.90
2022-09-13T08:25:43.607Z,68.90
2022-09-13T08:28:27.491Z,68.80
2022-09-13T08:30:54.692Z,68.70
2022-09-13T08:33:21.453Z,68.90
2022-09-13T08:35:52.612Z,68.80
2022-09-13T08:38:19.638Z,69.10
2022-09-13T08:40:50.186Z,69.20
2022-09-13T08:43:30.064Z,69.20
2022-09-13T08:46:02.804Z,69.10
2022-09-13T08:48:35.039Z,69.00
2022-09-13T08:51:05.970Z,69.10
2022-09-13T08:53:32.785Z,69.20
2022-09-13T08:56:05.836Z,69.10
2022-09-13T08:58:50.789Z,69.20
2022-09-13T09:01:24.184Z,69.30
2022-09-13T09:03:57.055Z,69.20
2022-09-13T09:06:23.824Z,69.10
2022-09-13T09:08:54.327Z,69.20
2022-09-13T09:11:31.972Z,69.40
2022-09-13T09:14:06.452Z,69.50
2022-09-13T09:16:49.540Z,69.10
2022-09-13T09:19:22.388Z,69.10
2022-09-13T09:21:50.027Z,69.10
2022-09-13T09:24:19.964Z,69.10
2022-09-13T09:26:46.714Z,68.90
2022-09-13T09:29:16.124Z,68.90
2022-09-13T09:32:04.066Z,69.10
2022-09-13T09:34:42.745Z,69.00
2022-09-13T09:37:22.319Z,69.00
2022-09-13T09:39:49.417Z,69.00
2022-09-13T09:42:18.514Z,69.90
2022-09-13T09:45:01.541Z,69.00
2022-09-13T09:47:45.685Z,68.80
2022-09-13T09:50:15.102Z,68.80
2022-09-13T09:53:02.987Z,69.00
2022-09-13T09:55:41.730Z,68.80
2022-09-13T09:58:08.777Z,68.70
2022-09-13T10:00:36.754Z,68.20
2022-09-13T10:03:08.107Z,68.00
2022-09-13T10:05:35.226Z,68.20
2022-09-13T10:08:04.001Z,68.30
2022-09-13T10:10:43.653Z,68.20
2022-09-13T10:13:16.149Z,68.00
2022-09-13T10:16:23.428Z,67.80
2022-09-13T10:18:50.153Z,68.10
2022-09-13T10:21:19.889Z,67.90
2022-09-13T10:23:47.461Z,67.80
2022-09-13T10:26:21.287Z,67.90
2022-09-13T10:28:57.239Z,67.80
2022-09-13T10:31:28.835Z,68.00
2022-09-13T10:34:00.564Z,67.90
2022-09-13T10:36:51.248Z,67.90
2022-09-13T10:39:21.510Z,67.80
2022-09-13T10:41:59.311Z,68.10
2022-09-13T10:44:53.552Z,67.80
2022-09-13T10:47:22.446Z,68.10
2022-09-13T10:49:52.968Z,68.00
2022-09-13T10:52:27.417Z,68.00
2022-09-13T10:54:55.418Z,67.90
2022-09-13T10:57:31.071Z,67.70
2022-09-13T10:59:57.980Z,67.80
2022-09-13T11:03:18.332Z,67.60
2022-09-13T11:06:02.919Z,67.30
2022-09-13T11:08:38.436Z,67.40
2022-09-13T11:11:24.199Z,67.40
2022-09-13T11:14:09.081Z,67.60
2022-09-13T11:16:44.180Z,67.40
2022-09-13T11:19:20.435Z,67.30
2022-09-13T11:22:04.800Z,66.70
2022-09-13T11:25:06.851Z,66.30
2022-09-13T11:27:42.193Z,66.10
2022-09-13T11:30:19.643Z,66.30
2022-09-13T11:32:55.860Z,67.20
2022-09-13T11:35:34.746Z,66.00
2022-09-13T11:38:23.731Z,65.70
2022-09-13T11:40:52.254Z,65.60
2022-09-13T11:43:45.484Z,65.30
2022-09-13T11:46:24.783Z,65.30
2022-09-13T11:49:10.544Z,64.80
2022-09-13T11:52:07.833Z,64.60
2022-09-13T11:54:50.118Z,64.50
2022-09-13T11:57:26.060Z,64.30
2022-09-13T11:59:58.900Z,64.40
2022-09-13T12:02:37.762Z,64.30
2022-09-13T12:05:23.026Z,64.20
2022-09-13T12:07:52.663Z,63.90
2022-09-13T12:10:23.309Z,63.40
2022-09-13T12:12:50.727Z,63.30
2022-09-13T12:15:24.647Z,63.00
2022-09-13T12:17:57.978Z,62.70
2022-09-13T12:20:31.577Z,62.70
2022-09-13T12:22:59.975Z,62.50
2022-09-13T12:25:46.694Z,62.10
2022-09-13T12:28:27.466Z,61.60
2022-09-13T12:30:57.344Z,61.10
2022-09-13T12:33:24.078Z,61.00
2022-09-13T12:36:19.882Z,61.10
2022-09-13T12:39:04.476Z,60.80
2022-09-13T12:41:51.611Z,60.80
2022-09-13T12:44:35.759Z,60.30
2022-09-13T12:47:37.538Z,60.30
2022-09-13T12:50:43.024Z,59.60
2022-09-13T12:53:21.669Z,59.70
2022-09-13T12:56:14.780Z,59.40
2022-09-13T12:58:41.559Z,59.20
2022-09-13T13:01:23.682Z,59.20
2022-09-13T13:03:56.703Z,59.00
2022-09-13T13:06:52.343Z,58.90
2022-09-13T13:09:33.985Z,59.00
2022-09-13T13:12:00.806Z,59.00
2022-09-13T13:14:28.493Z,59.10
2022-09-13T13:16:55.320Z,59.10
2022-09-13T13:19:32.622Z,59.10
2022-09-13T13:22:36.991Z,59.10
2022-09-13T13:25:38.944Z,59.20
2022-09-13T13:28:44.336Z,59.20
2022-09-13T13:31:35.626Z,58.80
2022-09-13T13:34:05.978Z,58.90
2022-09-13T13:36:43.752Z,59.10
2022-09-13T13:39:22.866Z,59.00
2022-09-13T13:41:59.148Z,59.00
2022-09-13T13:44:25.861Z,58.90
2022-09-13T13:47:08.326Z,59.10
2022-09-13T13:49:35.348Z,59.30
2022-09-13T13:52:17.752Z,59.20
2022-09-13T13:54:53.558Z,59.00
2022-09-13T13:57:38.725Z,59.00
2022-09-13T14:00:22.271Z,59.00
2022-09-13T14:02:53.470Z,58.90
2022-09-13T14:05:47.027Z,58.80
2022-09-13T14:08:31.842Z,58.40
2022-09-13T14:11:26.227Z,58.50
2022-09-13T14:14:02.757Z,58.50
2022-09-13T14:16:36.735Z,58.50
2022-09-13T14:19:24.377Z,57.90
2022-09-13T14:22:14.618Z,57.70
2022-09-13T14:24:43.297Z,58.00
2022-09-13T14:27:20.866Z,58.00
2022-09-13T14:29:49.182Z,57.70
2022-09-13T14:32:17.870Z,57.50
2022-09-13T14:34:55.695Z,57.30
2022-09-13T14:37:27.210Z,57.10
2022-09-13T14:39:58.758Z,57.10
2022-09-13T14:42:25.561Z,57.00
2022-09-13T14:44:52.325Z,56.80
2022-09-13T14:47:25.060Z,56.90
2022-09-13T14:49:54.806Z,57.20
2022-09-13T14:52:28.775Z,57.50
2022-09-13T14:54:57.547Z,57.80
2022-09-13T14:57:30.726Z,57.90
2022-09-13T15:00:17.767Z,58.00
2022-09-13T15:02:55.273Z,58.20
2022-09-13T15:05:23.984Z,58.40
2022-09-13T15:07:50.754Z,58.40
2022-09-13T15:10:29.941Z,58.60
2022-09-13T15:13:05.712Z,58.40
2022-09-13T15:15:32.380Z,58.30
2022-09-13T15:18:00.679Z,58.40
2022-09-13T15:20:45.044Z,58.40
2022-09-13T15:23:20.389Z,58.60
2022-09-13T15:26:00.145Z,58.60
2022-09-13T15:28:28.522Z,58.70
2022-09-13T15:30:56.374Z,58.80
2022-09-13T15:33:30.900Z,58.90
2022-09-13T15:36:28.040Z,59.10
2022-09-13T15:39:03.372Z,59.50
2022-09-13T15:41:34.765Z,60.30
2022-09-13T15:44:02.158Z,59.70
2022-09-13T15:46:29.586Z,59.90
2022-09-13T15:48:58.528Z,60.20
2022-09-13T15:51:25.534Z,59.90
2022-09-13T15:53:52.403Z,59.40
2022-09-13T15:56:25.385Z,59.30
2022-09-13T15:58:52.105Z,59.20
2022-09-13T16:01:18.866Z,59.30
2022-09-13T16:03:45.662Z,59.20
2022-09-13T16:06:12.525Z,59.40
2022-09-13T16:08:39.490Z,59.50
2022-09-13T16:11:06.469Z,59.60
2022-09-13T16:13:33.286Z,59.60
2022-09-13T16:16:00.170Z,59.50
2022-09-13T16:18:27.008Z,59.30
2022-09-13T16:20:53.897Z,59.20
2022-09-13T16:23:20.571Z,59.10
2022-09-13T16:25:47.838Z,59.00
2022-09-13T16:28:19.814Z,59.10
2022-09-13T16:30:47.290Z,59.40
2022-09-13T16:33:14.130Z,59.30
2022-09-13T16:35:40.869Z,59.30
2022-09-13T16:38:07.583Z,59.20
2022-09-13T16:40:34.287Z,59.40
2022-09-13T16:43:00.993Z,59.40
2022-09-13T16:45:27.697Z,59.60
2022-09-13T16:47:54.441Z,59.70
2022-09-13T16:50:21.185Z,59.90
2022-09-13T16:52:47.935Z,59.90
2022-09-13T16:55:14.759Z,59.90
2022-09-13T16:57:41.909Z,59.70
2022-09-13T17:00:11.660Z,59.60
2022-09-13T17:02:38.886Z,59.60
2022-09-13T17:05:07.699Z,59.60
2022-09-13T17:07:34.631Z,59.70
2022-09-13T17:10:01.789Z,59.90
2022-09-13T17:12:28.510Z,59.80
2022-09-13T17:14:55.799Z,59.70
2022-09-13T17:17:22.533Z,59.70
2022-09-13T17:19:49.351Z,59.70
2022-09-13T17:22:16.486Z,59.90
2022-09-13T17:24:43.933Z,59.90
2022-09-13T17:27:10.824Z,60.10
2022-09-13T17:29:37.545Z,60.40
2022-09-13T17:32:05.835Z,60.40
2022-09-13T17:34:34.599Z,60.50
2022-09-13T17:37:03.551Z,60.50
2022-09-13T17:39:30.888Z,60.50
2022-09-13T17:41:58.048Z,60.40
2022-09-13T17:44:24.862Z,60.50
2022-09-13T17:46:51.760Z,60.40
2022-09-13T17:49:18.678Z,60.60
2022-09-13T17:51:45.427Z,60.80
2022-09-13T17:54:12.328Z,60.70
2022-09-13T17:56:41.237Z,60.90
2022-09-13T17:59:11.739Z,61.00
2022-09-13T18:01:40.099Z,61.00
2022-09-13T18:04:07.849Z,60.90
2022-09-13T18:06:36.169Z,61.00
2022-09-13T18:09:02.904Z,61.10
2022-09-13T18:11:29.901Z,61.30
2022-09-13T18:13:56.997Z,61.30
2022-09-13T18:16:25.407Z,61.40
2022-09-13T18:18:52.567Z,61.60
2022-09-13T18:21:21.057Z,61.60
2022-09-13T18:23:48.954Z,61.80
2022-09-13T18:26:17.325Z,61.70
2022-09-13T18:28:44.119Z,61.80
2022-09-13T18:31:15.854Z,61.60
2022-09-13T18:33:42.829Z,61.80
2022-09-13T18:36:14.386Z,62.10
2022-09-13T18:38:42.459Z,62.10
2022-09-13T18:41:22.803Z,62.20
2022-09-13T18:43:55.183Z,62.20
2022-09-13T18:46:24.559Z,62.10
2022-09-13T18:48:55.394Z,62.20
2022-09-13T18:51:27.959Z,62.10
2022-09-13T18:53:55.717Z,62.30
2022-09-13T18:56:23.465Z,62.40
2022-09-13T18:58:50.405Z,62.70
2022-09-13T19:01:19.181Z,62.80
2022-09-13T19:03:53.716Z,62.90
2022-09-13T19:06:22.205Z,63.00
2022-09-13T19:08:49.408Z,63.00
2022-09-13T19:11:42.221Z,63.20
2022-09-13T19:14:03.771Z,63.10
2022-09-13T19:16:30.557Z,63.20
2022-09-13T19:18:57.306Z,63.20
2022-09-13T19:21:25.614Z,63.30
2022-09-13T19:23:59.543Z,63.40
2022-09-13T19:26:32.009Z,63.20
2022-09-13T19:29:04.174Z,63.40
2022-09-13T19:31:31.211Z,63.40
2022-09-13T19:33:58.032Z,63.40
2022-09-13T19:36:25.957Z,63.20
2022-09-13T19:38:53.677Z,63.20
2022-09-13T19:41:23.589Z,62.90
2022-09-13T19:43:51.233Z,63.10
2022-09-13T19:46:20.333Z,63.40
2022-09-13T19:48:48.105Z,63.50
2022-09-13T19:51:19.192Z,63.60
2022-09-13T19:53:57.029Z,63.80
2022-09-13T19:56:26.441Z,63.90
2022-09-13T19:58:53.160Z,64.10
2022-09-13T20:01:24.638Z,65.00
2022-09-13T20:03:55.901Z,64.90
2022-09-13T20:06:24.053Z,63.80
2022-09-13T20:08:51.221Z,63.80
2022-09-13T20:11:18.130Z,63.80
2022-09-13T20:13:45.125Z,64.00
2022-09-13T20:16:25.076Z,64.00
2022-09-13T20:18:52.199Z,64.20
2022-09-13T20:21:18.949Z,65.10
2022-09-13T20:23:45.873Z,64.10
2022-09-13T20:26:17.465Z,64.30
2022-09-13T20:28:44.395Z,64.30
2022-09-13T20:31:11.521Z,64.40
2022-09-13T20:33:39.721Z,64.50
2022-09-13T20:36:08.395Z,64.60
2022-09-13T20:38:35.397Z,64.60
2022-09-13T20:41:06.569Z,64.60
2022-09-13T20:43:33.852Z,64.70
2022-09-13T20:46:00.822Z,64.80
2022-09-13T20:48:27.512Z,64.80
2022-09-13T20:51:05.375Z,64.80
2022-09-13T20:53:32.838Z,64.90
2022-09-13T20:56:08.277Z,65.00
2022-09-13T20:58:38.129Z,65.00
2022-09-13T21:01:06.905Z,64.80
2022-09-13T21:03:38.849Z,64.80
2022-09-13T21:06:06.343Z,64.80
2022-09-13T21:08:41.980Z,64.90
2022-09-13T21:11:20.036Z,64.90
2022-09-13T21:13:48.532Z,65.70
2022-09-13T21:16:17.446Z,64.80
2022-09-13T21:18:44.408Z,64.70
2022-09-13T21:21:15.288Z,64.80
2022-09-13T21:23:42.095Z,64.80
2022-09-13T21:26:14.250Z,64.90
2022-09-13T21:28:42.768Z,64.90
2022-09-13T21:31:17.155Z,64.90
2022-09-13T21:33:47.555Z,65.10
2022-09-13T21:36:14.492Z,65.30
2022-09-13T21:38:41.250Z,65.40
2022-09-13T21:41:15.216Z,65.60
2022-09-13T21:43:41.963Z,65.70
2022-09-13T21:46:17.015Z,65.70
2022-09-13T21:48:48.549Z,65.60
2022-09-13T21:51:16.793Z,65.50
2022-09-13T21:53:43.768Z,65.60
2022-09-13T21:56:11.817Z,65.70
2022-09-13T21:58:38.765Z,65.80
2022-09-13T22:01:07.761Z,65.90
2022-09-13T22:03:35.348Z,65.90
2022-09-13T22:06:02.250Z,65.90
2022-09-13T22:08:48.950Z,65.90
2022-09-13T22:11:17.377Z,65.90
2022-09-13T22:13:47.693Z,65.90
2022-09-13T22:16:35.670Z,66.00
2022-09-13T22:19:09.219Z,66.00
2022-09-13T22:21:37.844Z,66.00
2022-09-13T22:24:04.857Z,66.00
2022-09-13T22:26:33.876Z,66.10
2022-09-13T22:29:00.649Z,66.20
2022-09-13T22:31:28.908Z,66.20
2022-09-13T22:33:56.441Z,66.30
2022-09-13T22:36:23.713Z,66.10
2022-09-13T22:38:54.792Z,66.20
2022-09-13T22:41:23.674Z,66.40
2022-09-13T22:43:50.492Z,66.60
2022-09-13T22:46:19.372Z,66.80
2022-09-13T22:48:46.420Z,66.50
2022-09-13T22:51:14.228Z,66.80
2022-09-13T22:53:42.458Z,67.10
2022-09-13T22:56:15.533Z,66.90
2022-09-13T22:58:42.414Z,67.10
2022-09-13T23:01:18.901Z,67.10
2022-09-13T23:03:46.378Z,67.20
2022-09-13T23:06:14.715Z,67.40
2022-09-13T23:08:41.597Z,67.50
2022-09-13T23:11:10.134Z,67.30
2022-09-13T23:13:36.985Z,67.30
2022-09-13T23:16:08.033Z,67.40
2022-09-13T23:18:34.938Z,67.50
2022-09-13T23:21:01.936Z,67.50
2022-09-13T23:23:28.890Z,67.30
2022-09-13T23:25:55.604Z,67.20
2022-09-13T23:28:22.306Z,67.30
2022-09-13T23:30:48.990Z,67.40
2022-09-13T23:33:16.858Z,67.60
2022-09-13T23:35:43.991Z,67.60
2022-09-13T23:38:11.365Z,67.60
2022-09-13T23:40:38.088Z,67.80
2022-09-13T23:43:04.762Z,67.80
2022-09-13T23:45:31.805Z,67.70
2022-09-13T23:47:58.561Z,67.90
2022-09-13T23:50:25.286Z,68.00
2022-09-13T23:52:52.001Z,68.00
2022-09-13T23:55:19.648Z,68.20
2022-09-13T23:57:46.369Z,68.30
